Time;durP1;ratioP1;P1;durP2;ratioP2;P2;SDS_P1;SDS_P2;PMS_P1;PMS_P2;Temp;Humidity;BMP_temperature;BMP_pressure;BME280_temperature;BME280_humidity;BME280_pressure;Samples;Min_cycle;Max_cycle;Signal;HPM_P1;HPM_P2
2022/07/11 00:01:08;;;;;;;;;;;;;;;23.06;57.58;100541.53;7401241;19;1769;-38
2022/07/11 00:03:37;;;;;;;;;;;;;;;23.03;57.33;100519.28;7401776;19;1591;-39
2022/07/11 00:06:05;;;;;;;;;;;;;;;23.10;57.09;100530.25;7401252;19;2290;-40
2022/07/11 00:08:33;;;;;;;;;;;;;;;23.10;57.22;100534.78;7404214;19;946;-38
2022/07/11 00:11:02;;;;;;;;;;;;;;;23.02;57.09;100549.97;7401878;19;1779;-39
2022/07/11 00:13:30;;;;;;;;;;;;;;;23.00;57.16;100529.53;7402407;19;1825;-38
2022/07/11 00:15:58;;;;;;;;;;;;;;;23.02;57.09;100536.47;7401268;19;1759;-38
2022/07/11 00:18:29;;;;;;;;;;;;;;;22.96;57.10;100541.66;7403673;19;1819;-38
2022/07/11 00:20:58;;;;;;;;;;;;;;;22.96;56.88;100541.66;7402310;19;1641;-38
2022/07/11 00:23:26;;;;;;;;;;;;;;;22.96;56.64;100536.25;7402724;19;1757;-38
2022/07/11 00:25:55;;;;;;;;;;;;;;;22.96;56.78;100531.72;7399495;19;2085;-39
2022/07/11 00:28:23;;;;;;;;;;;;;;;22.97;56.81;100541.50;7400525;19;1584;-38
2022/07/11 00:30:52;;;;;;;;;;;;;;;23.08;56.88;100552.97;7401025;19;1664;-38
2022/07/11 00:33:21;;;;;;;;;;;;;;;22.99;56.93;100535.94;7402676;19;1698;-44
2022/07/11 00:35:51;;;;;;;;;;;;;;;22.94;56.66;100538.28;7401750;19;1649;-39
2022/07/11 00:38:20;;;;;;;;;;;;;;;23.02;56.68;100544.56;7402721;19;1579;-38
2022/07/11 00:40:48;;;;;;;;;;;;;;;22.92;56.60;100538.47;7400474;19;1950;-38
2022/07/11 00:43:19;;;;;;;;;;;;;;;23.05;56.69;100551.47;7401612;19;1822;-38
2022/07/11 00:45:47;;;;;;;;;;;;;;;22.99;56.53;100547.56;7401608;19;1869;-37
2022/07/11 00:48:15;;;;;;;;;;;;;;;23.00;56.47;100534.94;7402426;19;1636;-38
2022/07/11 00:50:44;;;;;;;;;;;;;;;22.99;56.63;100544.03;7402337;19;1844;-38
2022/07/11 00:53:14;;;;;;;;;;;;;;;23.01;56.51;100547.41;7402821;19;979;-38
2022/07/11 00:55:43;;;;;;;;;;;;;;;23.07;56.42;100546.75;7399291;19;1790;-38
2022/07/11 00:58:11;;;;;;;;;;;;;;;22.91;56.09;100536.75;7400030;19;1868;-38
2022/07/11 01:00:40;;;;;;;;;;;;;;;22.80;56.15;100545.16;7400969;19;1678;-38
2022/07/11 01:03:09;;;;;;;;;;;;;;;22.71;56.10;100552.41;7401645;19;1850;-38
2022/07/11 01:05:37;;;;;;;;;;;;;;;22.79;56.13;100559.66;7401064;19;1924;-40
2022/07/11 01:08:06;;;;;;;;;;;;;;;22.75;55.71;100551.06;7402119;19;982;-38
2022/07/11 01:10:37;;;;;;;;;;;;;;;22.79;55.55;100549.72;7398837;19;1939;-39
2022/07/11 01:13:07;;;;;;;;;;;;;;;22.86;56.02;100544.53;7400838;19;1574;-39
2022/07/11 01:15:36;;;;;;;;;;;;;;;22.81;55.81;100542.31;7400880;19;1760;-38
2022/07/11 01:18:05;;;;;;;;;;;;;;;22.85;56.00;100542.81;7401392;19;1826;-38
2022/07/11 01:20:33;;;;;;;;;;;;;;;22.83;55.99;100542.16;7401691;19;1906;-38
2022/07/11 01:23:06;;;;;;;;;;;;;;;22.83;55.86;100550.25;7401742;19;1118;-39
2022/07/11 01:25:34;;;;;;;;;;;;;;;22.80;55.54;100550.56;7397577;19;2004;-38
2022/07/11 01:28:04;;;;;;;;;;;;;;;22.80;55.60;100555.94;7400699;19;1625;-39
2022/07/11 01:30:33;;;;;;;;;;;;;;;22.75;55.07;100552.94;7400253;19;1926;-38
2022/07/11 01:33:01;;;;;;;;;;;;;;;22.80;55.47;100558.66;7400389;19;1745;-39
2022/07/11 01:35:30;;;;;;;;;;;;;;;22.74;54.88;100551.22;7400380;19;1732;-39
2022/07/11 01:37:59;;;;;;;;;;;;;;;22.78;55.06;100552.56;7401675;19;1119;-39
2022/07/11 01:40:30;;;;;;;;;;;;;;;22.73;54.85;100549.56;7398276;19;1916;-39
2022/07/11 01:42:58;;;;;;;;;;;;;;;22.82;55.24;100557.50;7399478;19;1845;-38
2022/07/11 01:45:26;;;;;;;;;;;;;;;22.80;55.66;100555.94;7399814;19;1875;-38
2022/07/11 01:47:55;;;;;;;;;;;;;;;22.78;55.10;100563.34;7399940;19;1318;-38
2022/07/11 01:50:23;;;;;;;;;;;;;;;22.81;55.34;100554.97;7400014;19;1724;-39
2022/07/11 01:52:51;;;;;;;;;;;;;;;22.81;55.18;100557.66;7400734;19;1041;-38
2022/07/11 01:55:19;;;;;;;;;;;;;;;22.81;55.08;100557.66;7398539;19;1624;-38
2022/07/11 01:57:50;;;;;;;;;;;;;;;22.75;55.65;100580.72;7399551;19;1897;-38
2022/07/11 02:11:00;;;;;;;;;;;;;;;22.78;54.62;100576.84;7392734;19;1450;-39
2022/07/11 02:13:34;;;;;;;;;;;;;;;22.72;54.81;100580.19;7406051;19;1662;-38
2022/07/11 02:16:07;;;;;;;;;;;;;;;22.78;54.80;100579.53;7403427;19;1574;-38
2022/07/11 02:18:36;;;;;;;;;;;;;;;22.73;54.71;100590.00;7407576;19;1753;-38
2022/07/11 02:21:08;;;;;;;;;;;;;;;22.64;55.10;100584.56;7407003;19;1980;-38
2022/07/11 02:23:38;;;;;;;;;;;;;;;22.67;54.83;100579.88;7407374;19;1063;-38
2022/07/11 02:26:11;;;;;;;;;;;;;;;22.67;54.71;100582.56;7403525;19;1863;-38
2022/07/11 02:28:46;;;;;;;;;;;;;;;22.63;54.46;100599.03;7406025;19;1979;-38
2022/07/11 02:31:18;;;;;;;;;;;;;;;22.67;54.96;100598.72;7406130;19;1502;-38
2022/07/11 02:33:49;;;;;;;;;;;;;;;22.50;54.59;100598.69;7404661;19;1830;-38
2022/07/11 02:36:20;;;;;;;;;;;;;;;22.52;54.40;100607.44;7403880;19;1935;-38
2022/07/11 02:38:50;;;;;;;;;;;;;;;22.54;54.49;100616.22;7405060;19;1115;-38
2022/07/11 02:41:22;;;;;;;;;;;;;;;22.47;54.80;100625.94;7404127;19;1633;-38
2022/07/11 02:43:59;;;;;;;;;;;;;;;22.54;54.23;100609.97;7406129;19;1762;-38
2022/07/11 02:46:27;;;;;;;;;;;;;;;22.53;54.29;100630.69;7402198;19;1875;-38
2022/07/11 02:49:03;;;;;;;;;;;;;;;22.49;54.11;100621.22;7406026;19;1510;-39
2022/07/11 02:51:36;;;;;;;;;;;;;;;22.56;54.22;100616.03;7404220;19;1448;-38
2022/07/11 02:54:04;;;;;;;;;;;;;;;22.63;54.43;100636.78;7405056;19;1871;-38
2022/07/11 02:56:35;;;;;;;;;;;;;;;22.60;54.38;100626.34;7404993;19;1892;-39
2022/07/11 03:01:54;;;;;;;;;;;;;;;22.63;54.59;100646.72;7403189;19;1615;-39
2022/07/11 03:04:23;;;;;;;;;;;;;;;22.56;54.75;100640.28;7403755;19;1718;-38
2022/07/11 03:06:54;;;;;;;;;;;;;;;22.60;54.42;100637.13;7403913;19;1977;-38
2022/07/11 03:09:23;;;;;;;;;;;;;;;22.57;54.61;100621.25;7405600;19;1059;-38
2022/07/11 03:11:52;;;;;;;;;;;;;;;22.55;54.84;100642.16;7403482;19;1702;-38
2022/07/11 03:14:23;;;;;;;;;;;;;;;22.56;54.73;100646.53;7405177;19;1941;-38
2022/07/11 03:16:51;;;;;;;;;;;;;;;22.59;54.85;100654.28;7404375;19;1571;-38
2022/07/11 03:19:20;;;;;;;;;;;;;;;22.62;54.59;100662.06;7404274;19;1804;-38
2022/07/11 03:21:48;;;;;;;;;;;;;;;22.59;55.12;100656.97;7404240;19;1774;-39
2022/07/11 03:24:17;;;;;;;;;;;;;;;22.46;54.88;100666.50;7404912;19;1031;-38
2022/07/11 03:26:45;;;;;;;;;;;;;;;22.48;54.83;100654.56;7402484;19;1854;-38
2022/07/11 03:29:13;;;;;;;;;;;;;;;22.54;54.86;100663.84;7405238;19;1770;-38
2022/07/11 03:31:44;;;;;;;;;;;;;;;22.53;54.71;100663.03;7404186;19;1951;-38
2022/07/11 03:34:13;;;;;;;;;;;;;;;22.50;55.05;100666.06;7403260;19;1632;-38
2022/07/11 03:36:41;;;;;;;;;;;;;;;22.47;54.89;100663.66;7403308;19;1922;-38
2022/07/11 03:39:09;;;;;;;;;;;;;;;22.52;54.72;100666.72;7404045;19;963;-37
2022/07/11 03:41:37;;;;;;;;;;;;;;;22.40;55.37;100676.06;7403578;19;2058;-39
2022/07/11 03:44:06;;;;;;;;;;;;;;;22.45;55.20;100660.28;7404457;19;1565;-39
2022/07/11 03:46:34;;;;;;;;;;;;;;;22.45;55.13;100676.47;7402530;19;1867;-38
2022/07/11 03:49:05;;;;;;;;;;;;;;;22.54;55.10;100661.16;7403186;19;1495;-38
2022/07/11 03:51:33;;;;;;;;;;;;;;;22.58;55.07;100670.59;7402232;19;2016;-39
2022/07/11 03:54:02;;;;;;;;;;;;;;;22.61;55.28;100675.69;7403054;19;1114;-38
2022/07/11 03:56:30;;;;;;;;;;;;;;;22.68;54.95;100702.84;7402916;19;1968;-38
2022/07/11 03:58:58;;;;;;;;;;;;;;;22.59;55.47;100689.31;7403419;19;1698;-38
2022/07/11 04:01:26;;;;;;;;;;;;;;;22.66;55.19;100710.22;7402690;19;1843;-39
2022/07/11 04:03:55;;;;;;;;;;;;;;;22.69;55.62;100689.19;7402209;19;1924;-38
2022/07/11 04:06:26;;;;;;;;;;;;;;;22.59;55.54;100683.94;7402042;19;1879;-38
2022/07/11 04:08:54;;;;;;;;;;;;;;;22.61;55.57;100676.53;7402198;19;1019;-38
2022/07/11 04:11:23;;;;;;;;;;;;;;;22.75;55.48;100687.72;7401188;19;1873;-38
2022/07/11 04:13:51;;;;;;;;;;;;;;;22.72;55.48;100671.84;7402226;19;1670;-38
2022/07/11 04:16:19;;;;;;;;;;;;;;;22.71;55.61;100686.34;7402204;19;1482;-38
2022/07/11 04:18:47;;;;;;;;;;;;;;;22.72;55.72;100696.09;7402661;19;1829;-39
2022/07/11 04:21:16;;;;;;;;;;;;;;;22.62;56.33;100702.50;7401731;19;1562;-38
2022/07/11 04:23:47;;;;;;;;;;;;;;;22.62;56.41;100688.16;7402996;19;1901;-38
2022/07/11 04:26:15;;;;;;;;;;;;;;;22.60;56.43;100679.38;7399950;19;1879;-38
2022/07/11 04:28:44;;;;;;;;;;;;;;;22.66;56.43;100699.47;7402555;19;1572;-39
2022/07/11 04:31:12;;;;;;;;;;;;;;;22.62;56.54;100704.31;7399881;19;1849;-39
2022/07/11 04:33:40;;;;;;;;;;;;;;;22.62;56.19;100688.16;7401602;19;1572;-39
2022/07/11 04:36:09;;;;;;;;;;;;;;;22.56;56.23;100700.44;7402445;19;1835;-38
2022/07/11 04:38:37;;;;;;;;;;;;;;;22.41;55.93;100692.09;7402082;19;1482;-38
2022/07/11 04:41:08;;;;;;;;;;;;;;;22.61;55.93;100710.72;7401246;19;1958;-38
2022/07/11 04:43:38;;;;;;;;;;;;;;;22.66;56.27;100702.16;7401701;19;1525;-38
2022/07/11 04:46:06;;;;;;;;;;;;;;;22.63;55.99;100696.06;7400641;19;1846;-39
2022/07/11 04:48:37;;;;;;;;;;;;;;;22.67;55.79;100685.81;7399252;19;1972;-39
2022/07/11 04:51:06;;;;;;;;;;;;;;;22.56;55.91;100703.13;7401002;19;1830;-38
2022/07/11 04:53:35;;;;;;;;;;;;;;;22.56;56.38;100708.53;7400762;19;1637;-39
2022/07/11 04:56:03;;;;;;;;;;;;;;;22.61;56.39;100708.03;7401597;19;2014;-39
2022/07/11 04:58:35;;;;;;;;;;;;;;;22.56;55.63;100716.59;7399590;19;1484;-38
2022/07/11 05:01:03;;;;;;;;;;;;;;;22.71;56.03;100691.75;7399578;19;2094;-39
2022/07/11 05:03:32;;;;;;;;;;;;;;;22.79;56.09;100714.19;7401404;19;1517;-39
2022/07/11 05:06:00;;;;;;;;;;;;;;;22.80;56.16;100698.84;7401982;19;1857;-39
2022/07/11 05:08:29;;;;;;;;;;;;;;;22.68;56.65;100722.56;7400282;19;1649;-39
2022/07/11 05:10:57;;;;;;;;;;;;;;;22.80;56.36;100723.09;7399441;19;1863;-39
2022/07/11 05:13:25;;;;;;;;;;;;;;;22.87;56.08;100729.56;7398847;19;1861;-39
2022/07/11 05:15:56;;;;;;;;;;;;;;;22.81;55.98;100747.22;7398036;19;1799;-41
2022/07/11 05:18:25;;;;;;;;;;;;;;;22.74;56.48;100731.84;7400008;19;1610;-38
2022/07/11 05:20:53;;;;;;;;;;;;;;;22.75;56.27;100741.63;7399386;19;1964;-38
2022/07/11 05:23:21;;;;;;;;;;;;;;;22.93;55.60;100722.66;7401062;19;1886;-39
2022/07/11 05:25:49;;;;;;;;;;;;;;;22.98;55.84;100733.81;7398868;19;1976;-38
2022/07/11 05:28:18;;;;;;;;;;;;;;;23.09;56.00;100735.41;7396457;19;1896;-38
2022/07/11 05:30:46;;;;;;;;;;;;;;;23.25;55.98;100743.53;7400315;19;1582;-39
2022/07/11 05:33:17;;;;;;;;;;;;;;;23.36;55.63;100727.06;7400543;19;1526;-38
2022/07/11 05:35:45;;;;;;;;;;;;;;;23.45;55.86;100735.16;7397528;19;1580;-39
2022/07/11 05:38:13;;;;;;;;;;;;;;;23.39;55.80;100726.69;7400132;19;1850;-38
2022/07/11 05:40:41;;;;;;;;;;;;;;;23.42;56.21;100718.28;7397269;19;1937;-39
2022/07/11 05:43:10;;;;;;;;;;;;;;;23.48;55.79;100721.34;7397556;19;1689;-40
2022/07/11 05:45:39;;;;;;;;;;;;;;;23.46;56.23;100723.34;7406819;19;1451;-39
2022/07/11 05:48:07;;;;;;;;;;;;;;;23.40;56.01;100723.00;7404194;19;1866;-39
2022/07/11 05:50:38;;;;;;;;;;;;;;;23.37;56.47;100723.31;7406571;19;1514;-40
2022/07/11 05:53:07;;;;;;;;;;;;;;;23.35;56.67;100717.25;7405326;19;1861;-40
2022/07/11 05:55:35;;;;;;;;;;;;;;;23.33;56.54;100735.47;7404962;19;1914;-40
2022/07/11 05:58:03;;;;;;;;;;;;;;;23.37;56.40;100746.78;7406852;19;1674;-39
2022/07/11 06:00:32;;;;;;;;;;;;;;;23.40;56.70;100754.56;7406411;19;1769;-39
2022/07/11 06:03:00;;;;;;;;;;;;;;;23.38;56.48;100752.00;7407534;19;1826;-39
2022/07/11 06:05:28;;;;;;;;;;;;;;;23.28;56.42;100764.81;7407225;19;1576;-40
2022/07/11 06:10:40;;;;;;;;;;;;;;;23.36;56.79;100767.53;7406811;19;1634;-39
2022/07/11 06:13:08;;;;;;;;;;;;;;;23.35;56.65;100755.03;7403350;19;1610;-40
2022/07/11 06:15:37;;;;;;;;;;;;;;;23.35;56.58;100762.28;7406308;19;1857;-40
2022/07/11 06:18:05;;;;;;;;;;;;;;;23.35;56.38;100757.72;7406351;19;1783;-40
2022/07/11 06:20:33;;;;;;;;;;;;;;;23.31;56.46;100763.63;7405929;19;1729;-40
2022/07/11 06:23:05;;;;;;;;;;;;;;;23.30;56.33;100773.59;7406874;19;1651;-42
2022/07/11 06:25:34;;;;;;;;;;;;;;;23.30;56.40;100770.88;7406684;19;1541;-39
2022/07/11 06:28:03;;;;;;;;;;;;;;;23.32;56.36;100776.97;7404057;19;1843;-39
2022/07/11 06:30:31;;;;;;;;;;;;;;;23.33;56.16;100783.19;7405240;19;1572;-40
2022/07/11 06:33:00;;;;;;;;;;;;;;;23.35;56.00;100783.88;7400236;19;1562;-41
2022/07/11 06:35:28;;;;;;;;;;;;;;;23.36;56.16;100783.72;7404782;19;1588;-40
2022/07/11 06:37:56;;;;;;;;;;;;;;;23.40;56.21;100787.78;7405129;19;1636;-40
2022/07/11 06:40:27;;;;;;;;;;;;;;;23.44;56.11;100769.41;7404605;19;1632;-40
2022/07/11 06:42:55;;;;;;;;;;;;;;;23.51;56.06;100785.78;7405828;19;1592;-41
2022/07/11 06:45:24;;;;;;;;;;;;;;;23.60;56.12;100777.53;7402001;19;1594;-40
2022/07/11 06:47:52;;;;;;;;;;;;;;;23.57;56.25;100785.13;7402466;19;1859;-40
2022/07/11 06:50:29;;;;;;;;;;;;;;;23.55;56.38;100771.78;7406340;19;1531;-39
2022/07/11 06:53:07;;;;;;;;;;;;;;;23.47;56.66;100773.63;7404563;19;1609;-40
2022/07/11 06:55:53;;;;;;;;;;;;;;;23.48;56.57;100765.38;7403421;19;1603;-40
2022/07/11 06:58:36;;;;;;;;;;;;;;;23.49;56.83;100775.13;7405726;19;1507;-40
2022/07/11 07:01:15;;;;;;;;;;;;;;;23.56;56.68;100778.03;7405523;19;1810;-39
2022/07/11 07:03:46;;;;;;;;;;;;;;;23.63;56.28;100773.66;7401828;19;1625;-40
2022/07/11 07:06:19;;;;;;;;;;;;;;;23.61;56.42;100778.38;7405099;19;1768;-40
2022/07/11 07:08:47;;;;;;;;;;;;;;;23.59;56.58;100777.69;7402559;19;1843;-40
2022/07/11 07:11:15;;;;;;;;;;;;;;;23.58;56.63;100778.72;7403110;19;1794;-40
2022/07/11 07:13:47;;;;;;;;;;;;;;;23.58;56.79;100781.41;7402818;19;1346;-39
2022/07/11 07:16:16;;;;;;;;;;;;;;;23.61;56.44;100787.31;7404323;19;1935;-39
2022/07/11 07:18:45;;;;;;;;;;;;;;;23.61;56.67;100770.28;7403511;19;1918;-39
2022/07/11 07:21:13;;;;;;;;;;;;;;;23.62;56.67;100782.78;7402894;19;1728;-40
2022/07/11 07:23:42;;;;;;;;;;;;;;;23.60;56.84;100774.00;7405194;19;1052;-40
2022/07/11 07:26:10;;;;;;;;;;;;;;;23.60;56.65;100779.41;7403495;19;1806;-40
2022/07/11 07:28:39;;;;;;;;;;;;;;;23.60;56.86;100779.41;7401412;19;1838;-40
2022/07/11 07:31:11;;;;;;;;;;;;;;;23.68;56.66;100782.09;7403823;19;1867;-41
2022/07/11 07:33:40;;;;;;;;;;;;;;;23.65;56.75;100771.63;7403168;19;1818;-42
2022/07/11 07:36:09;;;;;;;;;;;;;;;23.64;56.71;100786.16;7403659;19;1446;-40
2022/07/11 07:38:37;;;;;;;;;;;;;;;23.63;56.84;100789.84;7405174;19;982;-40
2022/07/11 07:41:05;;;;;;;;;;;;;;;23.66;56.74;100784.13;7402822;19;1920;-40
2022/07/11 07:43:33;;;;;;;;;;;;;;;23.68;56.74;100786.69;7403407;19;1652;-40
2022/07/11 07:46:02;;;;;;;;;;;;;;;23.67;56.74;100775.00;7403128;19;1837;-40
2022/07/11 07:48:32;;;;;;;;;;;;;;;23.68;56.77;100767.78;7402173;19;1863;-40
2022/07/11 07:51:01;;;;;;;;;;;;;;;23.71;56.83;100767.41;7404142;19;1907;-39
2022/07/11 07:53:29;;;;;;;;;;;;;;;23.69;56.87;100778.38;7404023;19;1099;-40
2022/07/11 07:55:57;;;;;;;;;;;;;;;23.70;56.80;100776.56;7401070;19;1891;-40
2022/07/11 07:58:25;;;;;;;;;;;;;;;23.68;56.90;100768.59;7403179;19;1573;-40
2022/07/11 08:03:37;;;;;;;;;;;;;;;23.72;56.81;100769.97;7403696;19;1811;-40
2022/07/11 08:06:05;;;;;;;;;;;;;;;23.68;56.94;100760.50;7402629;19;1673;-39
2022/07/11 08:08:34;;;;;;;;;;;;;;;23.73;56.73;100770.81;7401904;19;1856;-39
2022/07/11 08:11:02;;;;;;;;;;;;;;;23.70;56.78;100763.88;7401140;19;1776;-40
2022/07/11 08:13:31;;;;;;;;;;;;;;;23.72;56.85;100761.03;7400355;19;1917;-39
2022/07/11 08:15:59;;;;;;;;;;;;;;;23.73;57.02;100762.69;7401874;19;1831;-39
2022/07/11 08:18:28;;;;;;;;;;;;;;;23.72;56.89;100758.31;7403354;19;1937;-40
2022/07/11 08:20:59;;;;;;;;;;;;;;;23.74;56.97;100759.00;7403028;19;1939;-40
2022/07/11 08:23:27;;;;;;;;;;;;;;;23.73;56.80;100747.34;7402896;19;983;-41
2022/07/11 08:25:56;;;;;;;;;;;;;;;23.75;56.86;100761.50;7400468;19;1866;-40
2022/07/11 08:28:24;;;;;;;;;;;;;;;23.75;56.69;100750.72;7400301;19;1885;-40
2022/07/11 08:30:52;;;;;;;;;;;;;;;23.72;57.10;100748.38;7402430;19;1724;-40
2022/07/11 08:33:20;;;;;;;;;;;;;;;23.74;57.07;100754.44;7402113;19;1603;-39
2022/07/11 08:35:49;;;;;;;;;;;;;;;23.69;57.26;100734.34;7403107;19;1916;-39
2022/07/11 08:38:19;;;;;;;;;;;;;;;23.73;56.95;100744.63;7403665;19;1036;-40
2022/07/11 08:40:48;;;;;;;;;;;;;;;23.72;57.27;100737.56;7399463;19;1842;-41
2022/07/11 08:43:17;;;;;;;;;;;;;;;23.75;57.06;100747.19;7399842;19;1827;-40
2022/07/11 08:45:45;;;;;;;;;;;;;;;23.77;57.11;100732.53;7402117;19;1986;-40
2022/07/11 08:48:13;;;;;;;;;;;;;;;23.76;56.99;100729.97;7400532;19;1857;-40
2022/07/11 08:50:42;;;;;;;;;;;;;;;23.76;56.80;100730.81;7401347;19;1642;-40
2022/07/11 08:53:11;;;;;;;;;;;;;;;23.77;56.97;100732.53;7402282;19;1032;-40
2022/07/11 08:55:42;;;;;;;;;;;;;;;23.79;57.20;100730.50;7399023;19;1780;-40
2022/07/11 08:58:11;;;;;;;;;;;;;;;23.80;57.24;100728.66;7400247;19;1662;-39
2022/07/11 09:00:40;;;;;;;;;;;;;;;23.76;57.25;100727.28;7399696;19;1718;-39
2022/07/11 09:03:09;;;;;;;;;;;;;;;23.78;57.07;100717.19;7400998;19;1744;-40
2022/07/11 09:05:38;;;;;;;;;;;;;;;23.79;57.12;100735.06;7401848;19;1716;-40
2022/07/11 09:08:06;;;;;;;;;;;;;;;23.80;57.10;100724.09;7400265;19;1866;-40
2022/07/11 09:10:35;;;;;;;;;;;;;;;23.81;56.90;100724.94;7399984;19;1664;-40
2022/07/11 09:13:07;;;;;;;;;;;;;;;23.79;57.10;100724.25;7396735;19;1652;-40
2022/07/11 09:18:36;;;;;;;;;;;;;;;23.73;57.44;100728.44;7401344;19;2574;-40
2022/07/11 09:26:27;;;;;;;;;;;;;;;23.77;57.37;100728.94;7401659;19;1811;-40
2022/07/11 09:29:05;;;;;;;;;;;;;;;23.78;57.23;100728.81;7405417;19;1858;-40
2022/07/11 09:31:34;;;;;;;;;;;;;;;23.84;57.55;100740.81;7408148;19;1664;-40
2022/07/11 09:34:04;;;;;;;;;;;;;;;23.77;57.65;100732.53;7407301;19;1629;-40
2022/07/11 09:36:43;;;;;;;;;;;;;;;23.75;57.73;100723.72;7406826;19;1746;-40
2022/07/11 09:39:12;;;;;;;;;;;;;;;23.75;57.94;100721.00;7405842;19;1964;-39
2022/07/11 09:41:40;;;;;;;;;;;;;;;23.77;57.52;100732.53;7406778;19;2035;-40
2022/07/11 09:44:26;;;;;;;;;;;;;;;23.84;57.76;100737.28;7407918;19;1716;-40
2022/07/11 09:46:59;;;;;;;;;;;;;;;23.86;57.39;100740.66;7409072;19;1928;-40
2022/07/11 09:49:38;;;;;;;;;;;;;;;23.82;57.65;100713.97;7405867;19;1982;-40
2022/07/11 09:52:10;;;;;;;;;;;;;;;23.83;57.31;100725.59;7408404;19;1685;-40
2022/07/11 09:54:54;;;;;;;;;;;;;;;23.85;57.32;100736.25;7406990;19;1514;-40
2022/07/11 09:57:30;;;;;;;;;;;;;;;23.79;57.53;100722.41;7406658;19;1515;-40
2022/07/11 10:00:02;;;;;;;;;;;;;;;23.87;57.52;100742.31;7407209;19;1651;-40
2022/07/11 10:02:31;;;;;;;;;;;;;;;23.81;57.77;100723.09;7406486;19;1540;-40
2022/07/11 10:05:00;;;;;;;;;;;;;;;23.83;57.54;100725.59;7407293;19;2237;-40
2022/07/11 10:07:28;;;;;;;;;;;;;;;23.86;57.45;100724.44;7406118;19;2065;-40
2022/07/11 10:09:56;;;;;;;;;;;;;;;23.85;57.71;100728.16;7407932;19;1919;-40
2022/07/11 10:12:25;;;;;;;;;;;;;;;23.87;57.85;100732.34;7405092;19;1733;-43
2022/07/11 10:14:55;;;;;;;;;;;;;;;23.87;57.75;100720.72;7407836;19;1020;-40
2022/07/11 10:17:31;;;;;;;;;;;;;;;23.83;57.79;100714.81;7406103;19;1921;-40
2022/07/11 10:20:03;;;;;;;;;;;;;;;23.85;57.49;100720.88;7407961;19;2033;-40
2022/07/11 10:22:34;;;;;;;;;;;;;;;23.85;57.50;100734.38;7406435;19;1775;-40
2022/07/11 10:25:04;;;;;;;;;;;;;;;23.84;57.66;100719.22;7403200;19;1830;-40
2022/07/11 10:27:36;;;;;;;;;;;;;;;23.84;57.50;100715.69;7405812;19;1973;-40
2022/07/11 10:30:05;;;;;;;;;;;;;;;23.89;58.02;100724.94;7405636;19;1557;-44
2022/07/11 10:32:56;;;;;;;;;;;;;;;23.88;57.85;100717.84;7407470;19;1038;-40
2022/07/11 10:35:25;;;;;;;;;;;;;;;23.85;57.82;100728.97;7405097;19;2094;-41
2022/07/11 10:37:54;;;;;;;;;;;;;;;23.88;57.66;100738.63;7407093;19;1652;-40
2022/07/11 10:40:37;;;;;;;;;;;;;;;23.84;57.79;100731.88;7403006;19;2022;-40
2022/07/11 10:43:05;;;;;;;;;;;;;;;23.82;57.87;100735.56;7405758;19;1835;-40
2022/07/11 10:45:51;;;;;;;;;;;;;;;23.85;57.88;100730.84;7405901;19;1608;-40
2022/07/11 10:48:22;;;;;;;;;;;;;;;23.85;57.93;100733.53;7404440;19;1855;-40
2022/07/11 10:50:56;;;;;;;;;;;;;;;23.85;57.98;100722.75;7405816;19;1618;-40
2022/07/11 10:53:24;;;;;;;;;;;;;;;23.84;58.17;100732.72;7405794;19;1052;-40
2022/07/11 10:56:04;;;;;;;;;;;;;;;23.84;57.74;100731.88;7403204;19;1964;-40
2022/07/11 10:58:33;;;;;;;;;;;;;;;23.87;57.90;100742.31;7401680;19;1573;-40
2022/07/11 11:01:11;;;;;;;;;;;;;;;23.85;58.15;100733.53;7402513;19;1474;-41
2022/07/11 11:03:43;;;;;;;;;;;;;;;23.85;58.14;100734.38;7403432;19;1336;-40
2022/07/11 11:06:11;;;;;;;;;;;;;;;23.80;58.15;100724.09;7405318;19;1491;-40
2022/07/11 11:08:47;;;;;;;;;;;;;;;23.85;58.07;100726.28;7405066;19;1876;-40
2022/07/11 11:11:35;;;;;;;;;;;;;;;23.84;57.96;100738.13;7402590;19;1877;-40
2022/07/11 11:14:18;;;;;;;;;;;;;;;23.87;58.24;100753.13;7405261;19;1811;-40
2022/07/11 11:16:46;;;;;;;;;;;;;;;23.85;57.82;100738.94;7404649;19;1630;-40
2022/07/11 11:19:29;;;;;;;;;;;;;;;23.86;58.14;100746.06;7404138;19;1479;-40
2022/07/11 11:22:14;;;;;;;;;;;;;;;23.85;57.80;100722.75;7403168;19;2470;-40
2022/07/11 11:24:43;;;;;;;;;;;;;;;23.84;58.16;100742.69;7405868;19;1022;-40
2022/07/11 11:27:18;;;;;;;;;;;;;;;23.91;58.02;100749.91;7405382;19;1019;-40
2022/07/11 11:29:46;;;;;;;;;;;;;;;23.84;58.06;100742.69;7402767;19;1857;-40
2022/07/11 11:32:15;;;;;;;;;;;;;;;23.86;57.98;100751.44;7404350;19;1556;-40
2022/07/11 11:34:43;;;;;;;;;;;;;;;23.86;57.88;100737.94;7404268;19;1801;-40
2022/07/11 11:37:14;;;;;;;;;;;;;;;23.87;58.05;100742.31;7403774;19;1619;-40
2022/07/11 11:39:42;;;;;;;;;;;;;;;23.84;58.00;100748.09;7405083;19;970;-40
2022/07/11 11:42:12;;;;;;;;;;;;;;;23.86;58.26;100746.06;7402376;19;1049;-40
2022/07/11 11:44:51;;;;;;;;;;;;;;;23.85;58.14;100741.66;7404181;19;1715;-40
2022/07/11 11:47:19;;;;;;;;;;;;;;;23.87;57.84;100745.03;7404453;19;1961;-40
2022/07/11 11:49:49;;;;;;;;;;;;;;;23.88;58.13;100746.72;7402052;19;1847;-40
2022/07/11 11:52:20;;;;;;;;;;;;;;;23.89;58.10;100746.53;7403429;19;1719;-40
2022/07/11 11:54:55;;;;;;;;;;;;;;;23.88;57.98;100754.81;7404542;19;1725;-41
2022/07/11 11:57:24;;;;;;;;;;;;;;;23.84;58.29;100723.78;7404965;19;968;-40
2022/07/11 11:59:53;;;;;;;;;;;;;;;23.87;58.05;100732.34;7403872;19;1754;-39
2022/07/11 12:02:28;;;;;;;;;;;;;;;23.94;58.01;100749.59;7403563;19;1699;-39
2022/07/11 12:04:57;;;;;;;;;;;;;;;23.87;58.05;100737.75;7403118;19;2120;-40
2022/07/11 12:07:32;;;;;;;;;;;;;;;23.88;58.10;100754.81;7402596;19;2147;-40
2022/07/11 12:10:03;;;;;;;;;;;;;;;23.85;58.08;100744.34;7398551;19;1929;-40
2022/07/11 12:12:47;;;;;;;;;;;;;;;23.85;58.06;100741.66;7401898;19;1561;-40
2022/07/11 12:16:39;;;;;;;;;;;;;;;23.86;57.87;100748.75;7402641;19;1649;-40
2022/07/11 12:18:27;;;;;;;;;;;;;;;23.88;57.83;100749.44;7400522;19;1747;-40
2022/07/11 12:20:56;;;;;;;;;;;;;;;23.87;57.92;100753.97;7403168;19;1732;-40
2022/07/11 12:23:27;;;;;;;;;;;;;;;23.86;57.88;100740.66;7402888;19;1803;-40
2022/07/11 12:25:57;;;;;;;;;;;;;;;23.88;57.85;100746.72;7399631;19;1833;-40
2022/07/11 12:28:26;;;;;;;;;;;;;;;23.93;58.17;100761.38;7401300;19;1848;-40
2022/07/11 12:30:57;;;;;;;;;;;;;;;23.90;58.11;100763.59;7400103;19;1674;-39
2022/07/11 12:33:26;;;;;;;;;;;;;;;23.89;58.00;100751.09;7402948;19;1900;-40
2022/07/11 12:35:58;;;;;;;;;;;;;;;23.88;57.93;100727.81;7401819;19;1747;-40
2022/07/11 12:38:51;;;;;;;;;;;;;;;23.89;57.94;100740.31;7403020;19;1063;-40
2022/07/11 12:41:19;;;;;;;;;;;;;;;23.89;57.98;100751.09;7400979;19;1712;-40
2022/07/11 12:46:33;;;;;;;;;;;;;;;23.87;58.04;100748.56;7402476;19;1905;-40
2022/07/11 12:49:05;;;;;;;;;;;;;;;23.86;58.22;100746.06;7401043;19;1856;-39
2022/07/11 12:51:36;;;;;;;;;;;;;;;23.93;57.83;100750.59;7400736;19;1822;-40
2022/07/11 12:54:08;;;;;;;;;;;;;;;23.85;58.55;100739.78;7400457;19;998;-40
2022/07/11 12:56:36;;;;;;;;;;;;;;;23.88;58.37;100755.66;7401916;19;1821;-40
2022/07/11 12:59:05;;;;;;;;;;;;;;;23.83;58.43;100747.22;7401672;19;1647;-40
2022/07/11 13:01:34;;;;;;;;;;;;;;;23.85;58.48;100749.75;7401087;19;1919;-40
2022/07/11 13:04:05;;;;;;;;;;;;;;;23.87;58.14;100739.63;7399545;19;1977;-40
2022/07/11 13:09:18;;;;;;;;;;;;;;;23.89;58.25;100751.09;7400068;19;1850;-39
2022/07/11 13:11:46;;;;;;;;;;;;;;;23.88;58.37;100739.47;7400969;19;2057;-40
2022/07/11 13:16:55;;;;;;;;;;;;;;;23.89;58.36;100751.94;7402599;19;1922;-40
2022/07/11 13:19:24;;;;;;;;;;;;;;;23.90;58.11;100758.22;7401341;19;1618;-40
2022/07/11 13:21:52;;;;;;;;;;;;;;;23.93;58.24;100750.59;7400946;19;1617;-40
2022/07/11 13:24:24;;;;;;;;;;;;;;;23.86;58.51;100743.34;7400713;19;1682;-39
2022/07/11 13:26:53;;;;;;;;;;;;;;;23.87;58.22;100742.31;7400460;19;2095;-40
2022/07/11 13:29:21;;;;;;;;;;;;;;;23.84;58.59;100753.47;7400064;19;1961;-40
2022/07/11 13:31:49;;;;;;;;;;;;;;;23.87;58.53;100745.03;7400118;19;1574;-40
2022/07/11 13:34:17;;;;;;;;;;;;;;;23.88;58.21;100739.47;7400200;19;1407;-40
2022/07/11 13:36:46;;;;;;;;;;;;;;;23.86;58.46;100736.09;7400489;19;1853;-40
2022/07/11 13:39:14;;;;;;;;;;;;;;;23.87;58.60;100731.53;7400204;19;1224;-40